MAPA DE AEROPUERTO

INFORMACIÓN METAR y TAF

METAR FOR LFPG
ADDS - METARS form results

(1146 UTC 02 June 2020)
Data provider http://aviationweather.gov/metar/data/
 
METAR text: LFPG 021130Z AUTO VRB03KT CAVOK 27/08 Q1016 NOSIG
Conditions at: LFPG (CHARLES DE GAULL, FR) observed 1130 UTC 02 June 2020
Temperature: 27.0°C (81°F)
Dewpoint: 8.0°C (46°F) [RH = 30%]
Pressure (altimeter): 30.00 inches Hg (1016.0 mb)
Winds: variable direction winds at 3 MPH (3 knots; 1.5 m/s)
Visibility: 6 or more miles (10+ km)
Ceiling: ceiling and visibility are OK
Clouds: unknown
Weather: no significant weather observed at this time

METAR text: LFPG 021100Z AUTO 07006KT 030V140 CAVOK 26/09 Q1017 NOSIG
Conditions at: LFPG (CHARLES DE GAULL, FR) observed 1100 UTC 02 June 2020
Temperature: 26.0°C (79°F)
Dewpoint: 9.0°C (48°F) [RH = 34%]
Pressure (altimeter): 30.03 inches Hg (1017.0 mb)
Winds: from the ENE (70 degrees) at 7 MPH (6 knots; 3.1 m/s)
Visibility: 6 or more miles (10+ km)
Ceiling: ceiling and visibility are OK
Clouds: unknown
Weather: no significant weather observed at this time

Forecast for: LFPG (CHARLES DE GAULL, FR)
Text: TAF LFPG 021100Z 0212/0318 07005KT CAVOK TX30/0214Z TN16/0305Z
Forecast period: 1200 UTC 02 June 2020 to 1000 UTC 03 June 2020
Forecast type: FROM: standard forecast or significant change
Winds: from the ENE (70 degrees) at 6 MPH (5 knots; 2.6 m/s)
Visibility: 6 or more miles 10+ km)
Ceiling: unknown
Clouds: missing
Weather: no significant weather forecast for this period
Text: BECMG 0310/0312 36010KT
Forecast period: 1000 to 1800 UTC 03 June 2020
Forecast type: BECOMING: Conditions expected to become as follows by 1200 UTC 03 June 2020
Winds: from the N (360 degrees) at 12 MPH (10 knots; 5.1 m/s)
Visibility: 6 or more miles 10+ km)
Ceiling: unknown
Clouds: missing
Weather: no significant weather forecast for this period
Text: PROB30
Forecast period: 1500 to 1800 UTC 03 June 2020
Forecast type: TEMPORARY: The following changes expected for less than half the time period
Visibility: 2.49 miles (4.01 km)
Ceiling: at least 12,000 feet AGL
Clouds: few clouds at 5000 feet AGL
Weather: TSRA  (rain associated with thunderstorm(s))